createdAt,value
2023-01-27T00:00:54.713Z,3.80
2023-01-27T00:05:49.398Z,3.80
2023-01-27T00:08:16.599Z,3.90
2023-01-27T00:13:28.438Z,3.80
2023-01-27T00:15:55.879Z,3.80
2023-01-27T00:23:55.276Z,3.70
2023-01-27T00:31:35.834Z,3.70
2023-01-27T00:34:08.941Z,3.70
2023-01-27T00:36:37.927Z,3.70
2023-01-27T00:39:06.003Z,3.70
2023-01-27T00:41:34.402Z,3.60
2023-01-27T00:46:28.985Z,3.70
2023-01-27T00:51:23.483Z,3.60
2023-01-27T00:56:17.869Z,3.70
2023-01-27T01:01:14.428Z,3.80
2023-01-27T01:03:41.903Z,3.80
2023-01-27T01:06:12.084Z,3.80
2023-01-27T01:11:07.647Z,3.90
2023-01-27T01:13:34.701Z,3.90
2023-01-27T01:16:10.085Z,4.00
2023-01-27T01:18:37.918Z,4.00
2023-01-27T01:23:37.477Z,4.00
2023-01-27T01:26:04.366Z,4.10
2023-01-27T01:28:31.104Z,4.10
2023-01-27T01:31:05.048Z,4.10
2023-01-27T01:36:13.426Z,4.10
2023-01-27T01:41:11.381Z,4.10
2023-01-27T01:46:07.767Z,4.10
2023-01-27T01:48:53.200Z,4.10
2023-01-27T01:51:34.685Z,4.10
2023-01-27T01:54:07.405Z,4.10
2023-01-27T01:56:54.562Z,4.00
2023-01-27T01:59:26.170Z,4.10
2023-01-27T02:01:56.355Z,4.10
2023-01-27T02:04:26.756Z,4.10
2023-01-27T02:07:11.601Z,4.10
2023-01-27T02:09:39.426Z,4.10
2023-01-27T02:12:06.290Z,4.10
2023-01-27T02:14:33.584Z,4.10
2023-01-27T02:17:00.834Z,4.10
2023-01-27T02:19:51.968Z,4.10
2023-01-27T02:22:35.720Z,4.10
2023-01-27T02:25:10.586Z,4.10
2023-01-27T02:35:02.674Z,4.00
2023-01-27T02:37:31.955Z,4.00
2023-01-27T02:40:00.741Z,4.00
2023-01-27T02:42:28.163Z,4.00
2023-01-27T02:44:54.835Z,3.80
2023-01-27T02:47:21.787Z,3.90
2023-01-27T02:52:16.244Z,4.00
2023-01-27T02:54:42.940Z,4.00
2023-01-27T02:59:36.694Z,4.00
2023-01-27T03:02:04.021Z,4.00
2023-01-27T03:06:57.953Z,3.90
2023-01-27T03:09:25.119Z,4.00
2023-01-27T03:12:10.497Z,4.00
2023-01-27T03:25:03.510Z,4.00
2023-01-27T03:32:30.988Z,4.00
2023-01-27T03:34:58.309Z,4.00
2023-01-27T03:37:44.130Z,4.00
2023-01-27T03:40:30.467Z,4.10
2023-01-27T03:43:15.804Z,4.00
2023-01-27T03:46:06.248Z,4.00
2023-01-27T03:48:33.566Z,4.00
2023-01-27T03:51:02.395Z,4.00
2023-01-27T03:53:29.168Z,4.00
2023-01-27T03:55:55.821Z,4.00
2023-01-27T04:00:52.787Z,4.00
2023-01-27T04:03:39.367Z,3.90
2023-01-27T04:06:27.182Z,3.90
2023-01-27T04:08:54.240Z,3.90
2023-01-27T04:14:08.393Z,5.90
2023-01-27T04:19:05.486Z,3.90
2023-01-27T04:21:32.904Z,3.90
2023-01-27T04:29:00.947Z,3.80
2023-01-27T04:31:27.867Z,3.70
2023-01-27T04:33:54.924Z,3.70
2023-01-27T04:38:48.700Z,3.80
2023-01-27T04:41:15.409Z,3.80
2023-01-27T04:46:09.652Z,3.80
2023-01-27T04:56:06.430Z,3.80
2023-01-27T04:58:33.765Z,3.80
2023-01-27T05:10:48.953Z,3.80
2023-01-27T05:25:50.048Z,3.80
2023-01-27T05:30:43.868Z,3.80
2023-01-27T05:35:37.609Z,3.80
2023-01-27T05:38:04.252Z,3.90
2023-01-27T05:45:25.656Z,3.90
2023-01-27T05:52:46.672Z,3.90
2023-01-27T05:55:13.647Z,4.00
2023-01-27T06:00:08.315Z,4.00
2023-01-27T06:02:35.020Z,4.00
2023-01-27T06:07:28.767Z,4.00
2023-01-27T06:09:55.421Z,4.00
2023-01-27T06:12:22.114Z,4.00
2023-01-27T06:17:15.859Z,4.00
2023-01-27T06:22:09.703Z,4.00
2023-01-27T06:24:36.398Z,4.00
2023-01-27T06:29:31.129Z,4.00
2023-01-27T06:31:57.819Z,3.90
2023-01-27T06:34:24.520Z,4.00
2023-01-27T06:36:53.773Z,4.00
2023-01-27T06:39:20.498Z,4.00
2023-01-27T06:41:49.186Z,4.10
2023-01-27T06:46:43.079Z,4.10
2023-01-27T06:56:31.481Z,4.10
2023-01-27T07:01:25.190Z,4.10
2023-01-27T07:03:51.844Z,4.10
2023-01-27T07:11:14.470Z,4.10
2023-01-27T07:21:05.533Z,4.20
2023-01-27T07:23:32.241Z,4.20
2023-01-27T07:26:04.260Z,4.60
2023-01-27T07:28:32.514Z,4.20
2023-01-27T07:31:03.106Z,4.30
2023-01-27T07:35:56.957Z,4.30
2023-01-27T07:40:50.809Z,4.30
2023-01-27T07:43:17.570Z,4.40
2023-01-27T07:48:16.461Z,4.40
2023-01-27T07:50:43.160Z,4.50
2023-01-27T07:53:10.859Z,4.40
2023-01-27T08:00:32.250Z,4.40
2023-01-27T08:03:00.443Z,4.40
2023-01-27T08:07:58.559Z,4.40
2023-01-27T08:17:57.337Z,4.50
2023-01-27T08:20:25.368Z,4.70
2023-01-27T08:25:19.688Z,4.90
2023-01-27T08:27:50.551Z,5.00
2023-01-27T08:35:11.676Z,5.10
2023-01-27T08:37:38.336Z,5.20
2023-01-27T08:40:05.388Z,5.10
2023-01-27T08:54:50.019Z,5.20
2023-01-27T08:57:16.713Z,5.20
2023-01-27T08:59:46.044Z,5.20
2023-01-27T09:02:14.406Z,5.40
2023-01-27T09:16:59.509Z,5.50
2023-01-27T09:19:26.229Z,5.50
2023-01-27T09:26:47.248Z,5.30
2023-01-27T09:29:13.926Z,5.40
2023-01-27T09:36:41.049Z,5.40
2023-01-27T09:39:08.747Z,5.40
2023-01-27T09:44:14.013Z,5.40
2023-01-27T09:46:55.372Z,5.50
2023-01-27T09:54:33.123Z,5.70
2023-01-27T09:59:56.064Z,5.80
2023-01-27T10:02:48.805Z,5.80
2023-01-27T10:05:27.352Z,5.70
2023-01-27T10:08:15.932Z,5.70
2023-01-27T10:11:18.741Z,5.80
2023-01-27T10:14:11.385Z,6.10
2023-01-27T10:16:57.551Z,6.00
2023-01-27T10:19:53.265Z,6.20
2023-01-27T10:22:57.891Z,6.30
2023-01-27T10:25:29.144Z,6.10
2023-01-27T10:28:03.043Z,6.20
2023-01-27T10:30:37.663Z,6.30
2023-01-27T10:33:20.057Z,6.40
2023-01-27T10:35:58.334Z,6.40
2023-01-27T10:38:52.608Z,6.50
2023-01-27T10:41:25.255Z,6.60
2023-01-27T10:44:25.758Z,6.60
2023-01-27T10:49:26.251Z,6.80
2023-01-27T10:51:59.239Z,6.50
2023-01-27T10:54:38.994Z,6.50
2023-01-27T10:57:13.671Z,6.60
2023-01-27T11:00:46.492Z,6.80
2023-01-27T11:03:04.961Z,6.90
2023-01-27T11:05:37.670Z,6.80
2023-01-27T11:08:11.164Z,6.80
2023-01-27T11:11:03.324Z,6.70
2023-01-27T11:13:32.115Z,6.80
2023-01-27T11:16:00.960Z,6.90
2023-01-27T11:18:30.288Z,7.10
2023-01-27T11:21:04.672Z,7.10
2023-01-27T11:23:35.588Z,7.20
2023-01-27T11:26:24.390Z,7.20
2023-01-27T11:29:04.048Z,7.00
2023-01-27T11:31:49.255Z,6.90
2023-01-27T11:34:23.014Z,6.70
2023-01-27T11:36:50.861Z,6.80
2023-01-27T11:39:18.594Z,6.70
2023-01-27T11:41:52.409Z,6.90
2023-01-27T11:44:26.027Z,6.90
2023-01-27T11:46:53.427Z,6.90
2023-01-27T11:49:27.093Z,7.10
2023-01-27T11:52:18.788Z,7.40
2023-01-27T11:54:57.294Z,7.40
2023-01-27T11:57:26.085Z,7.60
2023-01-27T11:59:58.895Z,7.60
2023-01-27T12:02:50.066Z,7.50
2023-01-27T12:05:27.169Z,7.60
2023-01-27T12:08:02.359Z,7.30
2023-01-27T12:10:33.279Z,7.30
2023-01-27T12:13:17.603Z,7.30
2023-01-27T12:15:49.505Z,11.40
2023-01-27T12:18:16.928Z,7.30
2023-01-27T12:20:49.084Z,7.60
2023-01-27T12:25:48.382Z,7.70
2023-01-27T12:28:25.690Z,7.50
2023-01-27T12:30:55.371Z,7.40
2023-01-27T12:33:31.505Z,7.40
2023-01-27T12:36:12.247Z,7.30
2023-01-27T12:38:45.925Z,7.00
2023-01-27T12:41:19.722Z,7.10
2023-01-27T12:44:15.643Z,7.20
2023-01-27T12:47:04.079Z,7.30
2023-01-27T12:49:37.738Z,7.20
2023-01-27T12:52:08.403Z,7.10
2023-01-27T12:57:10.892Z,7.00
2023-01-27T12:59:50.321Z,6.90
2023-01-27T13:02:31.102Z,7.00
2023-01-27T13:05:02.159Z,6.90
2023-01-27T13:07:46.725Z,6.90
2023-01-27T13:10:23.223Z,6.90
2023-01-27T13:12:55.647Z,6.90
2023-01-27T13:15:24.864Z,6.90
2023-01-27T13:17:59.705Z,6.80
2023-01-27T13:20:38.071Z,6.60
2023-01-27T13:23:26.641Z,6.70
2023-01-27T13:26:09.497Z,6.80
2023-01-27T13:29:06.130Z,6.70
2023-01-27T13:31:35.617Z,6.60
2023-01-27T13:34:21.081Z,6.60
2023-01-27T13:37:02.452Z,6.60
2023-01-27T13:39:47.742Z,6.70
2023-01-27T13:42:29.433Z,6.60
2023-01-27T13:45:12.157Z,6.60
2023-01-27T13:47:45.538Z,5.50
2023-01-27T13:50:29.620Z,6.60
2023-01-27T13:52:58.826Z,6.60
2023-01-27T13:55:46.978Z,6.70
2023-01-27T13:58:34.837Z,6.70
2023-01-27T14:01:04.703Z,6.50
2023-01-27T14:06:08.356Z,6.50
2023-01-27T14:08:49.989Z,6.50
2023-01-27T14:16:47.563Z,6.40
2023-01-27T14:19:51.082Z,6.60
2023-01-27T14:22:50.152Z,6.60
2023-01-27T14:25:21.935Z,6.60
2023-01-27T14:28:00.477Z,6.60
2023-01-27T14:30:37.730Z,6.50
2023-01-27T14:33:44.445Z,6.60
2023-01-27T14:36:53.353Z,6.60
2023-01-27T14:39:48.900Z,6.50
2023-01-27T14:42:27.641Z,6.40
2023-01-27T14:45:07.188Z,6.50
2023-01-27T14:47:48.163Z,6.50
2023-01-27T14:50:28.487Z,6.50
2023-01-27T14:53:24.461Z,6.50
2023-01-27T14:56:12.889Z,6.30
2023-01-27T15:01:32.865Z,6.10
2023-01-27T15:04:05.590Z,9.90
2023-01-27T15:06:47.260Z,6.10
2023-01-27T15:14:17.060Z,6.10
2023-01-27T15:17:29.304Z,6.10
2023-01-27T15:20:27.059Z,6.10
2023-01-27T15:23:12.212Z,6.00
2023-01-27T15:25:48.040Z,6.00
2023-01-27T15:28:18.030Z,6.00
2023-01-27T15:31:08.590Z,5.90
2023-01-27T15:34:14.179Z,6.00
2023-01-27T15:37:17.448Z,6.00
2023-01-27T15:40:15.326Z,5.90
2023-01-27T15:42:52.433Z,5.80
2023-01-27T15:45:30.852Z,5.80
2023-01-27T15:48:00.463Z,5.80
2023-01-27T15:50:33.586Z,5.80
2023-01-27T15:53:12.169Z,5.70
2023-01-27T15:55:55.513Z,5.70
2023-01-27T15:58:37.902Z,5.70
2023-01-27T16:01:08.364Z,5.70
2023-01-27T16:03:38.854Z,5.70
2023-01-27T16:06:12.252Z,5.60
2023-01-27T16:09:03.946Z,5.70
2023-01-27T16:14:12.694Z,5.60
2023-01-27T16:16:41.369Z,5.60
2023-01-27T16:19:11.320Z,5.60
2023-01-27T16:21:49.640Z,5.60
2023-01-27T16:26:50.314Z,5.60
2023-01-27T16:29:42.361Z,5.50
2023-01-27T16:32:18.302Z,5.60
2023-01-27T16:34:59.251Z,5.50
2023-01-27T16:37:31.084Z,5.50
2023-01-27T16:40:13.628Z,5.40
2023-01-27T16:43:04.795Z,5.50
2023-01-27T16:45:44.977Z,5.40
2023-01-27T16:48:22.749Z,5.40
2023-01-27T16:50:49.910Z,5.40
2023-01-27T16:53:22.956Z,5.30
2023-01-27T16:56:15.919Z,5.30
2023-01-27T17:01:25.909Z,5.20
2023-01-27T17:04:04.791Z,5.10
2023-01-27T17:09:23.519Z,5.10
2023-01-27T17:11:50.510Z,5.10
2023-01-27T17:14:30.040Z,5.00
2023-01-27T17:17:00.855Z,2.30
2023-01-27T17:19:31.271Z,5.10
2023-01-27T17:22:06.797Z,5.10
2023-01-27T17:24:41.739Z,5.10
2023-01-27T17:27:30.800Z,5.20
2023-01-27T17:30:25.104Z,5.30
2023-01-27T17:32:55.429Z,5.30
2023-01-27T17:35:25.505Z,5.30
2023-01-27T17:37:53.132Z,5.30
2023-01-27T17:40:22.452Z,5.40
2023-01-27T17:42:49.680Z,5.40
2023-01-27T17:45:34.609Z,5.30
2023-01-27T17:53:04.006Z,5.30
2023-01-27T17:58:05.190Z,5.30
2023-01-27T18:00:38.790Z,5.30
2023-01-27T18:05:51.875Z,5.20
2023-01-27T18:13:35.127Z,5.10
2023-01-27T18:16:03.477Z,5.00
2023-01-27T18:18:32.846Z,4.90
2023-01-27T18:23:54.443Z,5.00
2023-01-27T18:37:03.692Z,5.10
2023-01-27T18:44:38.132Z,5.20
2023-01-27T18:47:17.133Z,5.10
2023-01-27T18:54:40.825Z,5.10
2023-01-27T18:57:07.626Z,5.20
2023-01-27T19:09:23.351Z,5.10
2023-01-27T19:11:50.713Z,5.10
2023-01-27T19:14:17.368Z,5.10
2023-01-27T19:16:44.165Z,5.10
2023-01-27T19:26:33.103Z,5.20
2023-01-27T19:31:28.269Z,5.20
2023-01-27T19:33:56.795Z,5.20
2023-01-27T19:39:01.954Z,5.20
2023-01-27T19:46:23.307Z,5.20
2023-01-27T19:51:18.185Z,5.20
2023-01-27T19:53:45.598Z,5.20
2023-01-27T19:56:17.809Z,5.20
2023-01-27T20:01:13.841Z,5.10
2023-01-27T20:03:40.573Z,5.10
2023-01-27T20:06:21.007Z,5.10
2023-01-27T20:13:54.986Z,5.10
2023-01-27T20:18:50.705Z,5.10
2023-01-27T20:23:44.458Z,5.10
2023-01-27T20:31:16.146Z,5.00
2023-01-27T20:36:14.465Z,4.90
2023-01-27T20:38:42.954Z,4.90
2023-01-27T20:41:12.416Z,4.80
2023-01-27T20:51:04.438Z,4.80
2023-01-27T20:53:34.217Z,4.90
2023-01-27T21:03:36.566Z,4.90
2023-01-27T21:06:04.472Z,4.80
2023-01-27T21:08:31.213Z,4.80
2023-01-27T21:11:03.751Z,4.90
2023-01-27T21:13:30.867Z,4.90
2023-01-27T21:15:57.640Z,5.00
2023-01-27T21:20:54.542Z,5.00
2023-01-27T21:23:22.783Z,5.00
2023-01-27T21:25:50.450Z,4.80
2023-01-27T21:28:17.720Z,4.80
2023-01-27T21:33:12.168Z,4.90
2023-01-27T21:38:06.255Z,4.80
2023-01-27T21:43:19.645Z,4.80
2023-01-27T21:45:46.369Z,4.80
2023-01-27T21:48:13.116Z,4.80
2023-01-27T21:53:10.593Z,4.80
2023-01-27T21:55:37.375Z,4.90
2023-01-27T22:00:31.326Z,4.90
2023-01-27T22:03:00.840Z,4.80
2023-01-27T22:07:55.637Z,4.80
2023-01-27T22:15:28.774Z,4.60
2023-01-27T22:25:19.107Z,4.70
2023-01-27T22:27:46.333Z,4.70
2023-01-27T22:30:18.132Z,4.70
2023-01-27T22:32:45.979Z,4.60
2023-01-27T22:35:17.925Z,4.60
2023-01-27T22:37:45.301Z,4.60
2023-01-27T22:42:40.216Z,4.60
2023-01-27T22:45:10.516Z,4.60
2023-01-27T22:47:37.354Z,4.60
2023-01-27T22:50:04.338Z,4.60
2023-01-27T22:54:58.052Z,4.60
2023-01-27T22:59:58.043Z,4.60
2023-01-27T23:04:57.260Z,4.50
2023-01-27T23:07:24.418Z,4.50
2023-01-27T23:09:51.709Z,4.50
2023-01-27T23:12:18.687Z,4.40
2023-01-27T23:17:12.475Z,4.40
2023-01-27T23:19:39.155Z,4.30
2023-01-27T23:24:33.210Z,4.30
2023-01-27T23:36:50.878Z,3.90
2023-01-27T23:39:17.541Z,3.90
2023-01-27T23:44:12.451Z,3.70
2023-01-27T23:49:07.699Z,3.60
2023-01-27T23:58:56.751Z,3.40
